Terminal Aerodrome Forecast
Issued by NWS Brownsville, TX

Home | Current Version | Previous Version | Text Only | Print | Product List | Glossary On
Versions: 1 2 3 4 5 6 7 8 9 10 11 12 13 14 15 16 17 18 19 20 21 22 23 24 25 26 27 28 29 30
000
FTUS44 KBRO 261726
TAFBRO
TAF
KBRO 261726Z 2618/2718 31008KT P6SM BKN110
     FM270500 08003KT 1 1/2SM BR SCT030
      TEMPO 2706/2710 VRB03KT 1/4SM FG BKN004
     FM271400 14003KT 4SM BR SCT030
     FM271600 14005KT P6SM BKN100=

USA.gov is the U.S. government's official web portal to all federal, state and local government web resources and services.